createdAt,value
2019-06-04T00:01:57.812Z,96.19
2019-06-04T00:04:26.295Z,96.48
2019-06-04T00:06:54.745Z,96.46
2019-06-04T00:09:23.228Z,96.46
2019-06-04T00:11:51.634Z,96.46
2019-06-04T00:14:20.059Z,96.37
2019-06-04T00:16:48.463Z,96.07
2019-06-04T00:19:16.921Z,96.43
2019-06-04T00:21:45.348Z,96.63
2019-06-04T00:24:13.777Z,96.96
2019-06-04T00:26:42.204Z,97.40
2019-06-04T00:29:10.642Z,97.40
2019-06-04T00:31:39.432Z,97.07
2019-06-04T00:34:09.260Z,97.24
2019-06-04T00:36:37.778Z,97.52
2019-06-04T00:39:08.733Z,97.34
2019-06-04T00:41:37.334Z,97.45
2019-06-04T00:44:05.839Z,97.62
2019-06-04T00:46:34.346Z,97.56
2019-06-04T00:49:03.215Z,97.48
2019-06-04T00:51:31.654Z,97.02
2019-06-04T00:54:01.051Z,96.89
2019-06-04T00:56:29.448Z,96.74
2019-06-04T00:58:57.889Z,96.21
2019-06-04T01:01:26.321Z,95.97
2019-06-04T01:03:54.771Z,96.34
2019-06-04T01:06:23.173Z,96.33
2019-06-04T01:08:51.619Z,96.46
2019-06-04T01:11:20.318Z,96.36
2019-06-04T01:13:48.849Z,96.46
2019-06-04T01:16:17.277Z,96.40
2019-06-04T01:18:45.739Z,96.41
2019-06-04T01:21:14.598Z,96.16
2019-06-04T01:23:42.978Z,95.61
2019-06-04T01:26:11.409Z,94.16
2019-06-04T01:28:39.841Z,94.37
2019-06-04T01:31:08.589Z,95.07
2019-06-04T01:33:40.299Z,94.93
2019-06-04T01:36:08.561Z,95.32
2019-06-04T01:38:37.158Z,95.73
2019-06-04T01:41:07.015Z,96.00
2019-06-04T01:43:35.518Z,95.62
2019-06-04T01:46:03.959Z,96.00
2019-06-04T01:48:32.379Z,96.14
2019-06-04T01:51:01.983Z,95.98
2019-06-04T01:53:30.636Z,95.99
2019-06-04T01:55:59.180Z,96.08
2019-06-04T01:58:27.592Z,95.44
2019-06-04T02:00:56.033Z,96.15
2019-06-04T02:03:24.545Z,96.07
2019-06-04T02:05:52.994Z,95.46
2019-06-04T02:08:21.395Z,95.46
2019-06-04T02:10:49.870Z,96.19
2019-06-04T02:13:18.290Z,95.68
2019-06-04T02:15:46.696Z,96.10
2019-06-04T02:18:15.296Z,96.48
2019-06-04T02:20:43.778Z,96.80
2019-06-04T02:23:12.369Z,97.24
2019-06-04T02:25:40.973Z,96.77
2019-06-04T02:28:10.457Z,96.94
2019-06-04T02:30:38.943Z,96.46
2019-06-04T02:33:13.557Z,96.84
2019-06-04T02:35:37.622Z,97.60
2019-06-04T02:38:06.867Z,98.45
2019-06-04T02:40:47.320Z,98.83
2019-06-04T02:43:18.741Z,99.34
2019-06-04T02:45:48.626Z,99.77
2019-06-04T02:48:20.281Z,99.89
2019-06-04T02:50:49.441Z,99.62
2019-06-04T02:53:19.936Z,99.41
2019-06-04T02:55:53.181Z,99.25
2019-06-04T02:58:23.707Z,99.21
2019-06-04T03:01:01.898Z,99.40
2019-06-04T03:03:31.865Z,98.58
2019-06-04T03:06:00.998Z,98.78
2019-06-04T03:08:29.485Z,98.89
2019-06-04T03:10:58.040Z,98.79
2019-06-04T03:13:26.458Z,98.53
2019-06-04T03:15:54.891Z,98.35
2019-06-04T03:18:23.306Z,98.10
2019-06-04T03:20:51.785Z,97.18
2019-06-04T03:23:21.386Z,97.24
2019-06-04T03:25:50.086Z,97.52
2019-06-04T03:28:20.417Z,97.85
2019-06-04T03:30:48.659Z,97.95
2019-06-04T03:33:21.063Z,98.31
2019-06-04T03:35:47.213Z,98.16
2019-06-04T03:38:16.899Z,97.54
2019-06-04T03:40:45.423Z,97.36
2019-06-04T03:43:13.845Z,97.97
2019-06-04T03:45:42.361Z,98.10
2019-06-04T03:48:10.793Z,97.73
2019-06-04T03:50:39.244Z,97.71
2019-06-04T03:53:07.643Z,97.87
2019-06-04T03:55:36.056Z,97.72
2019-06-04T03:58:04.535Z,97.72
2019-06-04T04:00:32.934Z,97.78
2019-06-04T04:03:01.399Z,97.18
2019-06-04T04:05:29.820Z,96.42
2019-06-04T04:07:58.289Z,95.88
2019-06-04T04:10:26.927Z,96.31
2019-06-04T04:12:55.365Z,96.69
2019-06-04T04:15:24.970Z,98.07
2019-06-04T04:17:53.501Z,98.85
2019-06-04T04:20:23.050Z,97.79
2019-06-04T04:22:51.567Z,93.01
2019-06-04T04:25:20.525Z,93.43
2019-06-04T04:27:50.313Z,91.38
2019-06-04T04:30:19.001Z,91.41
2019-06-04T04:32:47.728Z,92.65
2019-06-04T04:35:17.173Z,88.76
2019-06-04T04:37:48.962Z,90.56
2019-06-04T04:40:17.690Z,92.55
2019-06-04T04:42:46.204Z,89.00
2019-06-04T04:45:14.837Z,89.26
2019-06-04T04:47:43.287Z,88.92
2019-06-04T04:50:12.052Z,91.95
2019-06-04T04:52:40.498Z,87.25
2019-06-04T04:55:09.076Z,86.16
2019-06-04T04:57:37.468Z,88.28
2019-06-04T05:00:08.332Z,84.02
2019-06-04T05:02:37.666Z,86.72
2019-06-04T05:05:06.967Z,88.75
2019-06-04T05:07:36.926Z,90.80
2019-06-04T05:10:07.025Z,92.78
2019-06-04T05:12:37.952Z,93.24
2019-06-04T05:15:08.265Z,94.43
2019-06-04T05:17:38.554Z,93.64
2019-06-04T05:20:09.813Z,93.68
2019-06-04T05:22:38.218Z,94.47
2019-06-04T05:25:07.785Z,94.06
2019-06-04T05:27:36.192Z,90.99
2019-06-04T05:30:07.499Z,91.24
2019-06-04T05:32:35.940Z,91.70
2019-06-04T05:35:06.534Z,90.93
2019-06-04T05:37:35.019Z,90.67
2019-06-04T05:40:04.119Z,92.00
2019-06-04T05:42:32.833Z,91.73
2019-06-04T05:45:01.442Z,93.12
2019-06-04T05:47:30.684Z,92.52
2019-06-04T05:49:59.146Z,92.34
2019-06-04T05:52:28.919Z,90.08
2019-06-04T05:54:57.615Z,90.19
2019-06-04T05:57:26.943Z,89.75
2019-06-04T05:59:55.386Z,86.51
2019-06-04T06:02:25.045Z,85.19
2019-06-04T06:04:53.635Z,85.13
2019-06-04T06:07:23.169Z,85.29
2019-06-04T06:09:51.747Z,83.67
2019-06-04T06:12:20.216Z,82.01
2019-06-04T06:14:48.647Z,81.25
2019-06-04T06:17:17.179Z,79.43
2019-06-04T06:19:45.621Z,81.84
2019-06-04T06:22:14.120Z,83.10
2019-06-04T06:24:42.694Z,82.58
2019-06-04T06:27:11.119Z,84.83
2019-06-04T06:29:39.592Z,83.48
2019-06-04T06:32:08.035Z,81.71
2019-06-04T06:34:39.012Z,76.72
2019-06-04T06:37:06.657Z,79.09
2019-06-04T06:39:35.335Z,80.08
2019-06-04T06:42:05.887Z,74.77
2019-06-04T06:44:34.267Z,72.41
2019-06-04T06:47:02.778Z,68.63
2019-06-04T06:49:31.504Z,69.20
2019-06-04T06:51:59.946Z,66.70
2019-06-04T06:54:29.391Z,65.40
2019-06-04T06:56:57.896Z,66.01
2019-06-04T06:59:26.315Z,66.34
2019-06-04T07:01:54.863Z,69.65
2019-06-04T07:04:23.608Z,64.56
2019-06-04T07:06:53.629Z,69.54
2019-06-04T07:09:23.886Z,70.54
2019-06-04T07:11:55.399Z,68.36
2019-06-04T07:14:24.564Z,72.69
2019-06-04T07:16:52.991Z,72.27
2019-06-04T07:19:21.410Z,74.91
2019-06-04T07:21:49.847Z,73.06
2019-06-04T07:24:18.255Z,74.75
2019-06-04T07:26:46.683Z,74.70
2019-06-04T07:29:15.139Z,71.35
2019-06-04T07:31:43.521Z,74.48
2019-06-04T07:34:12.011Z,74.34
2019-06-04T07:36:40.826Z,75.31
2019-06-04T07:39:09.360Z,75.26
2019-06-04T07:41:38.715Z,73.42
2019-06-04T07:44:08.379Z,74.35
2019-06-04T07:46:37.369Z,74.01
2019-06-04T07:49:06.249Z,76.65
2019-06-04T07:51:35.608Z,74.75
2019-06-04T07:54:04.587Z,74.55
2019-06-04T07:56:33.717Z,75.75
2019-06-04T07:59:02.188Z,76.30
2019-06-04T08:01:52.593Z,75.27
2019-06-04T08:04:01.115Z,75.23
2019-06-04T08:06:43.477Z,72.52
2019-06-04T08:08:59.962Z,73.23
2019-06-04T08:11:28.405Z,73.89
2019-06-04T08:13:57.897Z,76.13
2019-06-04T08:16:26.454Z,76.24
2019-06-04T08:18:54.891Z,71.91
2019-06-04T08:21:41.967Z,71.43
2019-06-04T08:23:53.615Z,75.01
2019-06-04T08:26:22.205Z,72.85
2019-06-04T08:28:50.721Z,75.27
2019-06-04T08:31:19.348Z,73.09
2019-06-04T08:33:48.080Z,73.11
2019-06-04T08:36:16.652Z,73.16
2019-06-04T08:38:55.011Z,74.45
2019-06-04T08:41:15.938Z,70.95
2019-06-04T08:43:45.850Z,70.33
2019-06-04T08:46:14.667Z,69.29
2019-06-04T08:48:44.371Z,68.17
2019-06-04T08:51:13.314Z,65.54
2019-06-04T08:53:42.302Z,70.40
2019-06-04T08:56:10.936Z,68.29
2019-06-04T08:58:41.198Z,66.84
2019-06-04T09:01:10.028Z,68.60
2019-06-04T09:03:39.668Z,66.84
2019-06-04T09:06:08.431Z,66.04
2019-06-04T09:08:38.504Z,66.58
2019-06-04T09:11:06.960Z,64.09
2019-06-04T09:13:35.443Z,65.12
2019-06-04T09:16:04.219Z,64.85
2019-06-04T09:18:32.635Z,63.39
2019-06-04T09:21:01.076Z,64.00
2019-06-04T09:23:29.501Z,66.88
2019-06-04T09:25:57.931Z,64.53
2019-06-04T09:28:27.012Z,64.27
2019-06-04T09:31:02.722Z,58.93
2019-06-04T09:33:25.660Z,61.66
2019-06-04T09:35:54.175Z,62.04
2019-06-04T09:38:22.572Z,60.43
2019-06-04T09:40:52.181Z,60.87
2019-06-04T09:43:21.111Z,59.35
2019-06-04T09:45:50.709Z,61.09
2019-06-04T09:48:19.232Z,62.54
2019-06-04T09:50:56.488Z,62.88
2019-06-04T09:53:17.865Z,61.60
2019-06-04T09:55:48.133Z,61.63
2019-06-04T09:58:32.001Z,60.58
2019-06-04T10:00:49.025Z,62.91
2019-06-04T10:03:18.609Z,57.34
2019-06-04T10:05:47.565Z,58.82
2019-06-04T10:08:16.098Z,57.24
2019-06-04T10:10:45.026Z,58.62
2019-06-04T10:13:14.768Z,60.87
2019-06-04T10:15:45.010Z,59.33
2019-06-04T10:18:13.681Z,56.74
2019-06-04T10:20:43.730Z,58.23
2019-06-04T10:23:12.563Z,57.51
2019-06-04T10:25:41.046Z,59.62
2019-06-04T10:28:09.686Z,63.51
2019-06-04T10:30:38.197Z,57.88
2019-06-04T10:33:13.252Z,56.68
2019-06-04T10:35:37.199Z,56.30
2019-06-04T10:38:23.282Z,55.42
2019-06-04T10:40:37.285Z,55.13
2019-06-04T10:43:06.041Z,52.75
2019-06-04T10:45:34.525Z,53.25
2019-06-04T10:48:02.925Z,53.08
2019-06-04T10:50:36.579Z,51.49
2019-06-04T10:53:07.352Z,53.46
2019-06-04T10:55:36.437Z,52.86
2019-06-04T10:58:05.718Z,51.16
2019-06-04T11:00:42.816Z,52.23
2019-06-04T11:03:11.705Z,54.38
2019-06-04T11:05:40.280Z,53.24
2019-06-04T11:08:08.839Z,56.74
2019-06-04T11:10:37.328Z,52.34
2019-06-04T11:13:06.191Z,51.76
2019-06-04T11:15:34.818Z,55.57
2019-06-04T11:18:03.634Z,54.18
2019-06-04T11:20:32.161Z,56.87
2019-06-04T11:23:00.866Z,54.13
2019-06-04T11:25:29.391Z,53.29
2019-06-04T11:27:59.276Z,51.17
2019-06-04T11:30:28.096Z,51.28
2019-06-04T11:32:57.797Z,51.93
2019-06-04T11:35:26.305Z,55.14
2019-06-04T11:37:56.324Z,52.49
2019-06-04T11:40:25.228Z,52.58
2019-06-04T11:43:02.748Z,52.51
2019-06-04T11:45:35.470Z,53.50
2019-06-04T11:48:04.549Z,52.39
2019-06-04T11:50:33.343Z,54.82
2019-06-04T11:53:02.503Z,52.17
2019-06-04T11:55:31.790Z,52.16
2019-06-04T11:58:02.021Z,53.04
2019-06-04T12:00:46.309Z,54.23
2019-06-04T12:03:15.589Z,56.28
2019-06-04T12:05:44.158Z,54.87
2019-06-04T12:08:12.767Z,54.59
2019-06-04T12:10:41.431Z,54.40
2019-06-04T12:13:09.864Z,53.36
2019-06-04T12:15:38.287Z,52.92
2019-06-04T12:18:07.360Z,53.88
2019-06-04T12:20:36.345Z,51.94
2019-06-04T12:25:37.074Z,51.04
2019-06-04T12:28:07.110Z,52.59
2019-06-04T12:30:37.608Z,51.90
2019-06-04T12:33:06.264Z,52.49
2019-06-04T12:35:36.182Z,51.84
2019-06-04T12:38:09.670Z,51.67
2019-06-04T12:40:37.512Z,52.21
2019-06-04T12:43:07.160Z,49.98
2019-06-04T12:45:36.022Z,51.36
2019-06-04T12:48:08.952Z,49.40
2019-06-04T12:50:39.248Z,50.48
2019-06-04T12:53:09.966Z,52.79
2019-06-04T12:55:39.762Z,52.86
2019-06-04T12:58:11.030Z,51.88
2019-06-04T13:00:41.330Z,52.66
2019-06-04T13:03:12.796Z,52.42
2019-06-04T13:05:44.668Z,50.68
2019-06-04T13:08:29.066Z,52.40
2019-06-04T13:10:45.603Z,53.39
2019-06-04T13:13:15.069Z,53.67
2019-06-04T13:15:45.076Z,53.26
2019-06-04T13:18:22.789Z,52.92
2019-06-04T13:20:45.642Z,53.91
2019-06-04T13:23:15.039Z,53.96
2019-06-04T13:25:43.630Z,54.46
2019-06-04T13:28:15.270Z,51.91
2019-06-04T13:30:59.448Z,51.56
2019-06-04T13:33:28.844Z,52.70
2019-06-04T13:35:57.267Z,54.55
2019-06-04T13:38:25.743Z,52.59
2019-06-04T13:40:54.315Z,50.07
2019-06-04T13:43:22.742Z,50.33
2019-06-04T13:45:51.293Z,49.03
2019-06-04T13:48:19.745Z,46.13
2019-06-04T13:50:48.211Z,48.08
2019-06-04T13:53:23.472Z,48.67
2019-06-04T13:55:47.171Z,48.97
2019-06-04T13:58:18.792Z,49.46
2019-06-04T14:00:45.778Z,49.95
2019-06-04T14:03:14.240Z,50.27
2019-06-04T14:05:42.621Z,48.88
2019-06-04T14:08:12.916Z,51.37
2019-06-04T14:10:50.136Z,49.49
2019-06-04T14:13:12.236Z,50.98
2019-06-04T14:15:40.787Z,51.85
2019-06-04T14:18:11.131Z,49.38
2019-06-04T14:20:39.614Z,49.28
2019-06-04T14:23:14.289Z,50.87
2019-06-04T14:25:41.260Z,49.52
2019-06-04T14:28:12.032Z,48.08
2019-06-04T14:30:39.895Z,48.13
2019-06-04T14:33:08.295Z,48.20
2019-06-04T14:35:36.707Z,47.34
2019-06-04T14:38:08.469Z,47.98
2019-06-04T14:40:37.297Z,47.73
2019-06-04T14:43:07.496Z,48.41
2019-06-04T14:45:35.950Z,47.31
2019-06-04T14:48:04.499Z,49.76
2019-06-04T14:50:32.915Z,49.06
2019-06-04T14:53:01.308Z,48.18
2019-06-04T14:55:29.723Z,48.81
2019-06-04T14:57:58.158Z,48.30
2019-06-04T15:00:26.941Z,47.87
2019-06-04T15:02:55.431Z,48.67
2019-06-04T15:05:23.840Z,47.92
2019-06-04T15:08:01.775Z,47.43
2019-06-04T15:10:22.533Z,49.94
2019-06-04T15:12:50.961Z,48.13
2019-06-04T15:15:21.204Z,48.73
2019-06-04T15:17:49.731Z,49.80
2019-06-04T15:20:18.746Z,48.09
2019-06-04T15:22:47.324Z,47.58
2019-06-04T15:25:24.517Z,47.95
2019-06-04T15:27:53.622Z,49.30
2019-06-04T15:30:22.396Z,48.36
2019-06-04T15:32:52.008Z,49.89
2019-06-04T15:35:20.589Z,48.08
2019-06-04T15:37:48.992Z,48.45
2019-06-04T15:40:18.861Z,49.63
2019-06-04T15:42:47.290Z,48.65
2019-06-04T15:45:31.139Z,49.25
2019-06-04T15:48:00.078Z,49.71
2019-06-04T15:50:28.651Z,51.42
2019-06-04T15:52:57.663Z,48.83
2019-06-04T15:55:26.333Z,47.84
2019-06-04T15:57:54.862Z,48.48
2019-06-04T16:00:23.796Z,46.54
2019-06-04T16:02:52.358Z,48.10
2019-06-04T16:05:21.704Z,48.16
2019-06-04T16:07:50.166Z,46.42
2019-06-04T16:10:23.732Z,45.36
2019-06-04T16:12:48.805Z,47.07
2019-06-04T16:15:19.632Z,44.87
2019-06-04T16:17:47.923Z,46.13
2019-06-04T16:20:20.391Z,46.70
2019-06-04T16:22:49.760Z,45.15
2019-06-04T16:25:20.017Z,46.54
2019-06-04T16:27:49.719Z,45.59
2019-06-04T16:30:38.988Z,44.73
2019-06-04T16:33:07.946Z,46.87
2019-06-04T16:35:36.440Z,45.71
2019-06-04T16:38:05.766Z,45.28
2019-06-04T16:40:34.518Z,46.23
2019-06-04T16:43:03.027Z,46.47
2019-06-04T16:45:31.515Z,45.65
2019-06-04T16:48:00.491Z,45.06
2019-06-04T16:50:29.057Z,44.26
2019-06-04T16:52:57.716Z,46.65
2019-06-04T16:55:27.851Z,46.46
2019-06-04T16:57:56.520Z,47.60
2019-06-04T17:00:26.938Z,45.95
2019-06-04T17:02:55.166Z,45.24
2019-06-04T17:05:23.945Z,47.85
2019-06-04T17:07:52.459Z,47.16
2019-06-04T17:10:43.363Z,46.86
2019-06-04T17:13:22.862Z,46.33
2019-06-04T17:15:51.202Z,45.61
2019-06-04T17:18:20.777Z,47.14
2019-06-04T17:20:50.971Z,45.46
2019-06-04T17:23:19.435Z,46.07
2019-06-04T17:25:47.856Z,45.49
2019-06-04T17:28:16.304Z,47.22
2019-06-04T17:30:44.703Z,47.00
2019-06-04T17:33:13.116Z,48.35
2019-06-04T17:35:41.587Z,48.03
2019-06-04T17:38:10.109Z,47.69
2019-06-04T17:40:38.504Z,46.42
2019-06-04T17:43:07.634Z,46.95
2019-06-04T17:45:36.276Z,46.85
2019-06-04T17:48:05.817Z,46.89
2019-06-04T17:50:34.713Z,46.20
2019-06-04T17:53:03.198Z,45.31
2019-06-04T17:55:32.811Z,45.45
2019-06-04T17:58:01.447Z,46.51
2019-06-04T18:00:35.657Z,45.57
2019-06-04T18:03:05.015Z,45.60
2019-06-04T18:05:35.119Z,44.74
2019-06-04T18:08:04.094Z,45.59
2019-06-04T18:10:33.125Z,46.52
2019-06-04T18:13:01.569Z,45.17
2019-06-04T18:15:31.189Z,45.63
2019-06-04T18:17:59.771Z,44.60
2019-06-04T18:20:28.528Z,45.26
2019-06-04T18:22:56.923Z,45.42
2019-06-04T18:25:25.356Z,44.86
2019-06-04T18:27:53.787Z,45.66
2019-06-04T18:30:22.199Z,46.58
2019-06-04T18:32:50.646Z,45.98
2019-06-04T18:35:19.059Z,45.25
2019-06-04T18:37:47.541Z,45.70
2019-06-04T18:40:15.994Z,45.61
2019-06-04T18:42:44.435Z,45.23
2019-06-04T18:45:14.384Z,46.00
2019-06-04T18:47:45.121Z,45.27
2019-06-04T18:50:13.557Z,46.76
2019-06-04T18:52:42.041Z,47.40
2019-06-04T18:55:10.881Z,47.25
2019-06-04T18:57:40.351Z,46.18
2019-06-04T19:00:09.708Z,47.10
2019-06-04T19:02:38.677Z,46.78
2019-06-04T19:05:08.188Z,46.43
2019-06-04T19:07:37.124Z,46.72
2019-06-04T19:10:11.051Z,47.40
2019-06-04T19:12:39.840Z,47.01
2019-06-04T19:15:12.978Z,46.68
2019-06-04T19:17:43.125Z,48.13
2019-06-04T19:20:13.904Z,47.16
2019-06-04T19:22:42.321Z,47.85
2019-06-04T19:25:11.087Z,47.85
2019-06-04T19:27:39.515Z,48.25
2019-06-04T19:30:08.485Z,48.18
2019-06-04T19:32:39.537Z,47.70
2019-06-04T19:35:07.506Z,48.66
2019-06-04T19:37:37.171Z,48.97
2019-06-04T19:40:10.144Z,49.36
2019-06-04T19:42:39.234Z,50.27
2019-06-04T19:45:08.725Z,50.21
2019-06-04T19:47:38.498Z,50.42
2019-06-04T19:50:08.546Z,50.54
2019-06-04T19:52:37.056Z,50.98
2019-06-04T19:55:06.910Z,51.25
2019-06-04T19:57:35.324Z,50.99
2019-06-04T20:00:06.177Z,51.27
2019-06-04T20:02:35.610Z,51.67
2019-06-04T20:05:07.570Z,52.24
2019-06-04T20:07:36.480Z,51.29
2019-06-04T20:10:06.951Z,51.48
2019-06-04T20:12:36.687Z,51.46
2019-06-04T20:15:08.518Z,51.19
2019-06-04T20:17:37.542Z,51.27
2019-06-04T20:20:07.445Z,52.35
2019-06-04T20:22:37.707Z,52.17
2019-06-04T20:25:10.057Z,53.18
2019-06-04T20:27:38.938Z,52.62
2019-06-04T20:30:09.887Z,53.12
2019-06-04T20:32:43.264Z,52.15
2019-06-04T20:35:14.094Z,52.36
2019-06-04T20:37:39.419Z,52.47
2019-06-04T20:40:08.484Z,53.38
2019-06-04T20:42:36.974Z,52.51
2019-06-04T20:45:13.162Z,52.76
2019-06-04T20:47:37.468Z,53.09
2019-06-04T20:50:06.906Z,52.82
2019-06-04T20:52:35.729Z,53.01
2019-06-04T20:55:05.900Z,53.89
2019-06-04T20:57:34.306Z,52.52
2019-06-04T21:00:04.450Z,53.23
2019-06-04T21:02:32.995Z,53.07
2019-06-04T21:05:01.698Z,52.22
2019-06-04T21:07:30.393Z,52.12
2019-06-04T21:09:58.838Z,52.11
2019-06-04T21:12:27.261Z,52.16
2019-06-04T21:14:55.944Z,52.59
2019-06-04T21:17:24.496Z,52.47
2019-06-04T21:19:54.045Z,52.78
2019-06-04T21:22:22.627Z,52.32
2019-06-04T21:24:51.446Z,51.63
2019-06-04T21:27:19.958Z,51.41
2019-06-04T21:29:49.715Z,51.02
2019-06-04T21:32:18.274Z,51.20
2019-06-04T21:34:46.943Z,50.34
2019-06-04T21:37:15.399Z,50.80
2019-06-04T21:39:48.323Z,50.58
2019-06-04T21:42:13.959Z,50.00
2019-06-04T21:44:42.381Z,49.87
2019-06-04T21:47:11.294Z,48.86
2019-06-04T21:49:39.709Z,49.46
2019-06-04T21:52:08.105Z,50.32
2019-06-04T21:54:36.525Z,49.56
2019-06-04T21:57:05.092Z,46.92
2019-06-04T21:59:33.529Z,45.17
2019-06-04T22:02:02.963Z,53.25
2019-06-04T22:04:31.393Z,62.79
2019-06-04T22:07:01.102Z,65.16
2019-06-04T22:09:31.315Z,61.97
2019-06-04T22:12:00.879Z,65.51
2019-06-04T22:14:29.437Z,66.93
2019-06-04T22:16:57.850Z,66.82
2019-06-04T22:19:26.285Z,67.18
2019-06-04T22:21:54.834Z,70.13
2019-06-04T22:24:23.337Z,71.18
2019-06-04T22:26:51.999Z,73.10
2019-06-04T22:29:20.420Z,75.04
2019-06-04T22:31:49.914Z,76.46
2019-06-04T22:34:19.086Z,79.07
2019-06-04T22:36:49.681Z,73.77
2019-06-04T22:39:17.652Z,70.45
2019-06-04T22:41:46.093Z,70.96
2019-06-04T22:44:14.500Z,70.69
2019-06-04T22:46:42.914Z,71.29
2019-06-04T22:49:11.326Z,69.48
2019-06-04T22:51:39.748Z,70.63
2019-06-04T22:54:08.157Z,71.02
2019-06-04T22:56:36.579Z,70.12
2019-06-04T22:59:04.991Z,71.12
2019-06-04T23:01:33.422Z,71.31
2019-06-04T23:04:05.303Z,72.59
2019-06-04T23:06:35.697Z,73.97
2019-06-04T23:09:02.629Z,73.89
2019-06-04T23:11:31.203Z,71.59
2019-06-04T23:14:01.260Z,74.36
2019-06-04T23:16:37.563Z,73.00
2019-06-04T23:19:01.576Z,73.34
2019-06-04T23:21:30.106Z,73.46
2019-06-04T23:23:59.757Z,74.52
2019-06-04T23:26:28.248Z,75.46
2019-06-04T23:28:56.737Z,75.28
2019-06-04T23:31:25.164Z,74.18
2019-06-04T23:33:54.621Z,74.43
2019-06-04T23:36:23.077Z,75.14
2019-06-04T23:38:51.569Z,73.72
2019-06-04T23:41:19.944Z,75.66
2019-06-04T23:43:48.379Z,75.28
2019-06-04T23:46:16.794Z,76.15
2019-06-04T23:48:45.232Z,76.06
2019-06-04T23:51:13.629Z,76.67
2019-06-04T23:53:42.072Z,76.02
2019-06-04T23:56:10.528Z,75.56
2019-06-04T23:58:38.974Z,75.43
